sensor_id;sensor_type;location;lat;lon;timestamp;pressure;altitude;pressure_sealevel;temperature;humidity
21588;BME280;10956;48.878;13.316;2023-01-29T00:01:55;94992.25;;;-0.65;100.00
21588;BME280;10956;48.878;13.316;2023-01-29T00:04:20;94990.09;;;-0.76;100.00
21588;BME280;10956;48.878;13.316;2023-01-29T00:06:46;94994.63;;;-0.78;100.00
21588;BME280;10956;48.878;13.316;2023-01-29T00:09:12;94999.63;;;-0.77;100.00
21588;BME280;10956;48.878;13.316;2023-01-29T00:11:38;95006.31;;;-0.82;100.00
21588;BME280;10956;48.878;13.316;2023-01-29T00:14:04;95003.91;;;-0.84;100.00
21588;BME280;10956;48.878;13.316;2023-01-29T00:16:29;94997.94;;;-0.84;100.00
21588;BME280;10956;48.878;13.316;2023-01-29T00:18:55;94995.34;;;-0.84;100.00
21588;BME280;10956;48.878;13.316;2023-01-29T00:21:21;94992.75;;;-0.84;100.00
21588;BME280;10956;48.878;13.316;2023-01-29T00:23:48;94991.50;;;-0.88;100.00
21588;BME280;10956;48.878;13.316;2023-01-29T00:26:14;94985.63;;;-0.82;100.00
21588;BME280;10956;48.878;13.316;2023-01-29T00:28:40;94991.41;;;-0.80;100.00
21588;BME280;10956;48.878;13.316;2023-01-29T00:31:14;94989.19;;;-0.83;100.00
21588;BME280;10956;48.878;13.316;2023-01-29T00:33:40;94979.53;;;-0.89;100.00
21588;BME280;10956;48.878;13.316;2023-01-29T00:36:07;94980.16;;;-0.87;100.00
21588;BME280;10956;48.878;13.316;2023-01-29T00:38:34;94971.25;;;-0.85;100.00
21588;BME280;10956;48.878;13.316;2023-01-29T00:43:49;94963.56;;;-0.93;100.00
21588;BME280;10956;48.878;13.316;2023-01-29T00:46:33;94959.53;;;-0.95;100.00
21588;BME280;10956;48.878;13.316;2023-01-29T00:48:59;94957.56;;;-0.93;100.00
21588;BME280;10956;48.878;13.316;2023-01-29T00:51:24;94959.53;;;-0.95;100.00
21588;BME280;10956;48.878;13.316;2023-01-29T00:53:49;94963.72;;;-0.94;100.00
21588;BME280;10956;48.878;13.316;2023-01-29T00:56:15;94969.88;;;-0.95;100.00
21588;BME280;10956;48.878;13.316;2023-01-29T00:58:41;94984.78;;;-0.98;100.00
21588;BME280;10956;48.878;13.316;2023-01-29T01:01:07;94978.97;;;-1.00;100.00
21588;BME280;10956;48.878;13.316;2023-01-29T01:03:32;94976.47;;;-1.08;100.00
21588;BME280;10956;48.878;13.316;2023-01-29T01:06:08;94965.38;;;-1.16;100.00
21588;BME280;10956;48.878;13.316;2023-01-29T01:08:34;94973.94;;;-1.16;100.00
21588;BME280;10956;48.878;13.316;2023-01-29T01:11:17;94973.94;;;-1.16;100.00
21588;BME280;10956;48.878;13.316;2023-01-29T01:13:43;94968.78;;;-1.16;100.00
21588;BME280;10956;48.878;13.316;2023-01-29T01:16:14;94982.06;;;-1.19;100.00
21588;BME280;10956;48.878;13.316;2023-01-29T01:18:41;94979.63;;;-1.20;100.00
21588;BME280;10956;48.878;13.316;2023-01-29T01:21:06;94970.38;;;-1.15;100.00
21588;BME280;10956;48.878;13.316;2023-01-29T01:23:33;94970.09;;;-1.20;100.00
21588;BME280;10956;48.878;13.316;2023-01-29T01:25:58;94974.28;;;-1.19;100.00
21588;BME280;10956;48.878;13.316;2023-01-29T01:28:24;94977.50;;;-1.17;100.00
21588;BME280;10956;48.878;13.316;2023-01-29T01:30:50;94972.00;;;-1.14;100.00
21588;BME280;10956;48.878;13.316;2023-01-29T01:33:15;94970.72;;;-1.18;100.00
21588;BME280;10956;48.878;13.316;2023-01-29T01:35:40;94964.22;;;-1.14;100.00
21588;BME280;10956;48.878;13.316;2023-01-29T01:38:06;94964.69;;;-1.10;100.00
21588;BME280;10956;48.878;13.316;2023-01-29T01:40:32;94958.44;;;-1.16;100.00
21588;BME280;10956;48.878;13.316;2023-01-29T01:42:59;94957.44;;;-1.15;100.00
21588;BME280;10956;48.878;13.316;2023-01-29T01:45:34;94961.63;;;-1.14;100.00
21588;BME280;10956;48.878;13.316;2023-01-29T01:48:16;94948.09;;;-1.16;100.00
21588;BME280;10956;48.878;13.316;2023-01-29T01:50:52;94946.47;;;-1.17;100.00
21588;BME280;10956;48.878;13.316;2023-01-29T01:53:22;94948.78;;;-1.22;100.00
21588;BME280;10956;48.878;13.316;2023-01-29T01:56:03;94952.00;;;-1.20;100.00
21588;BME280;10956;48.878;13.316;2023-01-29T01:58:38;94963.03;;;-1.26;100.00
21588;BME280;10956;48.878;13.316;2023-01-29T02:01:07;94958.22;;;-1.29;100.00
21588;BME280;10956;48.878;13.316;2023-01-29T02:03:42;94959.72;;;-1.35;100.00
21588;BME280;10956;48.878;13.316;2023-01-29T02:06:28;94949.25;;;-1.41;100.00
21588;BME280;10956;48.878;13.316;2023-01-29T02:09:17;94948.00;;;-1.45;100.00
21588;BME280;10956;48.878;13.316;2023-01-29T02:12:05;94960.22;;;-1.39;100.00
21588;BME280;10956;48.878;13.316;2023-01-29T02:14:32;94954.50;;;-1.49;100.00
21588;BME280;10956;48.878;13.316;2023-01-29T02:17:03;94961.56;;;-1.43;100.00
21588;BME280;10956;48.878;13.316;2023-01-29T02:19:48;94965.47;;;-1.47;100.00
21588;BME280;10956;48.878;13.316;2023-01-29T02:25:08;94959.03;;;-1.51;100.00
21588;BME280;10956;48.878;13.316;2023-01-29T02:30:58;94974.53;;;-1.51;100.00
21588;BME280;10956;48.878;13.316;2023-01-29T02:41:39;94955.47;;;-1.50;100.00
21588;BME280;10956;48.878;13.316;2023-01-29T02:44:11;94949.38;;;-1.57;100.00
21588;BME280;10956;48.878;13.316;2023-01-29T02:52:10;94961.78;;;-1.53;100.00
21588;BME280;10956;48.878;13.316;2023-01-29T02:54:45;94953.06;;;-1.52;100.00
21588;BME280;10956;48.878;13.316;2023-01-29T02:57:22;94959.03;;;-1.51;100.00
21588;BME280;10956;48.878;13.316;2023-01-29T02:59:53;94961.91;;;-1.46;100.00
21588;BME280;10956;48.878;13.316;2023-01-29T03:02:25;94959.94;;;-1.44;100.00
21588;BME280;10956;48.878;13.316;2023-01-29T03:04:59;94955.63;;;-1.52;100.00
21588;BME280;10956;48.878;13.316;2023-01-29T03:07:31;94957.75;;;-1.55;100.00
21588;BME280;10956;48.878;13.316;2023-01-29T03:10:34;94962.94;;;-1.55;100.00
21588;BME280;10956;48.878;13.316;2023-01-29T03:13:20;94963.44;;;-1.60;100.00
21588;BME280;10956;48.878;13.316;2023-01-29T03:15:57;94969.78;;;-1.63;100.00
21588;BME280;10956;48.878;13.316;2023-01-29T03:18:28;94970.41;;;-1.60;100.00
21588;BME280;10956;48.878;13.316;2023-01-29T03:21:02;94970.06;;;-1.57;100.00
21588;BME280;10956;48.878;13.316;2023-01-29T03:23:49;94965.34;;;-1.54;100.00
21588;BME280;10956;48.878;13.316;2023-01-29T03:26:33;94968.09;;;-1.55;100.00
21588;BME280;10956;48.878;13.316;2023-01-29T03:29:17;94962.13;;;-1.56;100.00
21588;BME280;10956;48.878;13.316;2023-01-29T03:32:01;94957.06;;;-1.49;100.00
21588;BME280;10956;48.878;13.316;2023-01-29T03:34:48;94962.88;;;-1.47;100.00
21588;BME280;10956;48.878;13.316;2023-01-29T03:37:35;94953.50;;;-1.48;100.00
21588;BME280;10956;48.878;13.316;2023-01-29T03:40:05;94954.22;;;-1.54;100.00
21588;BME280;10956;48.878;13.316;2023-01-29T03:45:15;94960.97;;;-1.53;100.00
21588;BME280;10956;48.878;13.316;2023-01-29T03:47:56;94955.94;;;-1.47;100.00
21588;BME280;10956;48.878;13.316;2023-01-29T03:52:57;94964.19;;;-1.51;100.00
21588;BME280;10956;48.878;13.316;2023-01-29T03:55:39;94984.88;;;-1.51;100.00
21588;BME280;10956;48.878;13.316;2023-01-29T04:04:17;94982.69;;;-1.63;100.00
21588;BME280;10956;48.878;13.316;2023-01-29T04:06:47;94981.53;;;-1.60;100.00
21588;BME280;10956;48.878;13.316;2023-01-29T04:09:20;94976.25;;;-1.67;100.00
21588;BME280;10956;48.878;13.316;2023-01-29T04:11:58;94974.34;;;-1.73;100.00
21588;BME280;10956;48.878;13.316;2023-01-29T04:14:26;94976.25;;;-1.67;100.00
21588;BME280;10956;48.878;13.316;2023-01-29T04:16:54;94975.00;;;-1.71;100.00
21588;BME280;10956;48.878;13.316;2023-01-29T04:19:21;94978.38;;;-1.70;100.00
21588;BME280;10956;48.878;13.316;2023-01-29T04:21:49;94977.06;;;-1.66;100.00
21588;BME280;10956;48.878;13.316;2023-01-29T04:24:17;94968.03;;;-1.70;100.00
21588;BME280;10956;48.878;13.316;2023-01-29T04:32:16;94968.22;;;-1.72;100.00
21588;BME280;10956;48.878;13.316;2023-01-29T04:38:10;94959.06;;;-1.82;100.00
21588;BME280;10956;48.878;13.316;2023-01-29T04:40:55;94960.38;;;-1.86;100.00
21588;BME280;10956;48.878;13.316;2023-01-29T04:52:19;94968.66;;;-1.91;100.00
21588;BME280;10956;48.878;13.316;2023-01-29T04:57:25;94964.06;;;-1.81;100.00
21588;BME280;10956;48.878;13.316;2023-01-29T05:00:04;94957.97;;;-1.88;100.00
21588;BME280;10956;48.878;13.316;2023-01-29T05:02:36;94947.34;;;-1.93;100.00
21588;BME280;10956;48.878;13.316;2023-01-29T05:05:03;94952.56;;;-2.01;100.00
21588;BME280;10956;48.878;13.316;2023-01-29T05:07:31;94966.31;;;-2.09;100.00
21588;BME280;10956;48.878;13.316;2023-01-29T05:09:59;94969.75;;;-2.16;100.00
21588;BME280;10956;48.878;13.316;2023-01-29T05:12:27;94970.41;;;-2.22;100.00
21588;BME280;10956;48.878;13.316;2023-01-29T05:14:55;94972.38;;;-2.24;100.00
21588;BME280;10956;48.878;13.316;2023-01-29T05:17:24;94984.31;;;-2.23;100.00
21588;BME280;10956;48.878;13.316;2023-01-29T05:19:50;94981.09;;;-2.25;100.00
21588;BME280;10956;48.878;13.316;2023-01-29T05:22:17;94971.56;;;-2.25;100.00
21588;BME280;10956;48.878;13.316;2023-01-29T05:24:47;94972.03;;;-2.21;100.00
21588;BME280;10956;48.878;13.316;2023-01-29T05:27:26;94965.13;;;-2.29;100.00
21588;BME280;10956;48.878;13.316;2023-01-29T05:30:12;94958.22;;;-2.37;100.00
21588;BME280;10956;48.878;13.316;2023-01-29T05:32:38;94966.41;;;-2.25;100.00
21588;BME280;10956;48.878;13.316;2023-01-29T05:35:04;94961.91;;;-2.31;100.00
21588;BME280;10956;48.878;13.316;2023-01-29T05:37:29;94961.09;;;-2.32;100.00
21588;BME280;10956;48.878;13.316;2023-01-29T05:39:55;94959.81;;;-2.36;100.00
21588;BME280;10956;48.878;13.316;2023-01-29T05:42:20;94954.00;;;-2.30;100.00
21588;BME280;10956;48.878;13.316;2023-01-29T05:44:46;94957.69;;;-2.24;100.00
21588;BME280;10956;48.878;13.316;2023-01-29T05:47:11;94951.38;;;-2.21;100.00
21588;BME280;10956;48.878;13.316;2023-01-29T05:49:37;94955.72;;;-2.22;100.00
21588;BME280;10956;48.878;13.316;2023-01-29T05:52:02;94955.91;;;-2.23;100.00
21588;BME280;10956;48.878;13.316;2023-01-29T05:54:28;94957.88;;;-2.34;100.00
21588;BME280;10956;48.878;13.316;2023-01-29T05:56:53;94954.66;;;-2.36;100.00
21588;BME280;10956;48.878;13.316;2023-01-29T05:59:19;94964.97;;;-2.28;100.00
21588;BME280;10956;48.878;13.316;2023-01-29T06:01:44;94960.44;;;-2.25;100.00
21588;BME280;10956;48.878;13.316;2023-01-29T06:04:10;94960.91;;;-2.22;100.00
21588;BME280;10956;48.878;13.316;2023-01-29T06:06:35;94961.38;;;-2.18;100.00
21588;BME280;10956;48.878;13.316;2023-01-29T06:09:00;94955.88;;;-2.15;100.00
21588;BME280;10956;48.878;13.316;2023-01-29T06:11:26;94956.19;;;-2.18;100.00
21588;BME280;10956;48.878;13.316;2023-01-29T06:13:51;94954.25;;;-2.16;100.00
21588;BME280;10956;48.878;13.316;2023-01-29T06:16:16;94950.69;;;-2.15;100.00
21588;BME280;10956;48.878;13.316;2023-01-29T06:18:42;94951.03;;;-2.18;100.00
21588;BME280;10956;48.878;13.316;2023-01-29T06:21:10;94963.94;;;-2.18;100.00
21588;BME280;10956;48.878;13.316;2023-01-29T06:23:36;94961.38;;;-2.18;100.00
21588;BME280;10956;48.878;13.316;2023-01-29T06:26:09;94958.16;;;-2.20;100.00
21588;BME280;10956;48.878;13.316;2023-01-29T06:28:35;94962.69;;;-2.22;100.00
21588;BME280;10956;48.878;13.316;2023-01-29T06:31:01;94973.16;;;-2.24;100.00
21588;BME280;10956;48.878;13.316;2023-01-29T06:33:27;94963.03;;;-2.34;100.00
21588;BME280;10956;48.878;13.316;2023-01-29T06:35:57;94970.28;;;-2.29;100.00
21588;BME280;10956;48.878;13.316;2023-01-29T06:38:22;94966.59;;;-2.35;100.00
21588;BME280;10956;48.878;13.316;2023-01-29T06:40:48;94965.31;;;-2.39;100.00
21588;BME280;10956;48.878;13.316;2023-01-29T06:43:13;94966.22;;;-2.23;100.00
21588;BME280;10956;48.878;13.316;2023-01-29T06:45:46;94963.66;;;-2.23;100.00
21588;BME280;10956;48.878;13.316;2023-01-29T06:48:11;94970.13;;;-2.28;100.00
21588;BME280;10956;48.878;13.316;2023-01-29T06:50:37;94963.03;;;-2.34;100.00
21588;BME280;10956;48.878;13.316;2023-01-29T06:53:02;94971.75;;;-2.35;100.00
21588;BME280;10956;48.878;13.316;2023-01-29T06:55:27;94963.97;;;-2.26;100.00
21588;BME280;10956;48.878;13.316;2023-01-29T06:57:53;94969.34;;;-2.36;100.00
21588;BME280;10956;48.878;13.316;2023-01-29T07:00:18;94972.22;;;-2.31;100.00
21588;BME280;10956;48.878;13.316;2023-01-29T07:02:48;94963.84;;;-2.33;100.00
21588;BME280;10956;48.878;13.316;2023-01-29T07:05:13;94960.31;;;-2.32;100.00
21588;BME280;10956;48.878;13.316;2023-01-29T07:07:38;94957.50;;;-2.22;100.00
21588;BME280;10956;48.878;13.316;2023-01-29T07:10:04;94959.41;;;-2.16;100.00
21588;BME280;10956;48.878;13.316;2023-01-29T07:12:30;94947.28;;;-2.08;100.00
21588;BME280;10956;48.878;13.316;2023-01-29T07:14:55;94950.31;;;-2.04;100.00
21588;BME280;10956;48.878;13.316;2023-01-29T07:17:20;94945.75;;;-1.94;100.00
21588;BME280;10956;48.878;13.316;2023-01-29T07:19:46;94943.13;;;-1.86;100.00
21588;BME280;10956;48.878;13.316;2023-01-29T07:22:11;94951.66;;;-1.85;100.00
21588;BME280;10956;48.878;13.316;2023-01-29T07:24:37;94947.75;;;-1.81;100.00
21588;BME280;10956;48.878;13.316;2023-01-29T07:27:02;94956.28;;;-1.73;100.00
21588;BME280;10956;48.878;13.316;2023-01-29T07:29:27;94961.44;;;-1.73;99.72
21588;BME280;10956;48.878;13.316;2023-01-29T07:31:53;94953.06;;;-1.75;99.88
21588;BME280;10956;48.878;13.316;2023-01-29T07:34:18;94956.78;;;-1.77;99.89
21588;BME280;10956;48.878;13.316;2023-01-29T07:36:43;94956.44;;;-1.74;99.56
21588;BME280;10956;48.878;13.316;2023-01-29T07:39:09;94953.06;;;-1.75;99.48
21588;BME280;10956;48.878;13.316;2023-01-29T07:41:34;94958.22;;;-1.75;99.53
21588;BME280;10956;48.878;13.316;2023-01-29T07:44:00;94963.69;;;-1.70;99.41
21588;BME280;10956;48.878;13.316;2023-01-29T07:46:25;94965.91;;;-1.67;98.87
21588;BME280;10956;48.878;13.316;2023-01-29T07:48:50;94962.47;;;-1.59;98.93
21588;BME280;10956;48.878;13.316;2023-01-29T07:51:16;94966.84;;;-1.59;98.60
21588;BME280;10956;48.878;13.316;2023-01-29T07:53:42;94965.91;;;-1.67;98.43
21588;BME280;10956;48.878;13.316;2023-01-29T07:56:09;94974.66;;;-1.68;98.58
21588;BME280;10956;48.878;13.316;2023-01-29T07:58:34;94971.09;;;-1.67;98.24
21588;BME280;10956;48.878;13.316;2023-01-29T08:01:04;94973.03;;;-1.69;98.03
21588;BME280;10956;48.878;13.316;2023-01-29T08:03:29;94975.28;;;-1.66;98.01
21588;BME280;10956;48.878;13.316;2023-01-29T08:05:56;94987.22;;;-1.65;97.81
21588;BME280;10956;48.878;13.316;2023-01-29T08:08:22;94999.28;;;-1.57;97.55
21588;BME280;10956;48.878;13.316;2023-01-29T08:10:47;94999.94;;;-1.55;97.06
21588;BME280;10956;48.878;13.316;2023-01-29T08:13:13;94997.75;;;-1.66;97.40
21588;BME280;10956;48.878;13.316;2023-01-29T08:15:44;95003.13;;;-1.76;97.46
21588;BME280;10956;48.878;13.316;2023-01-29T08:18:10;95001.47;;;-1.69;97.58
21588;BME280;10956;48.878;13.316;2023-01-29T08:20:36;95009.56;;;-1.72;97.39
21588;BME280;10956;48.878;13.316;2023-01-29T08:23:03;95014.22;;;-1.67;97.36
21588;BME280;10956;48.878;13.316;2023-01-29T08:25:30;95012.91;;;-1.63;97.02
21588;BME280;10956;48.878;13.316;2023-01-29T08:27:57;95008.53;;;-1.63;97.01
21588;BME280;10956;48.878;13.316;2023-01-29T08:30:27;95016.47;;;-1.64;96.72
21588;BME280;10956;48.878;13.316;2023-01-29T08:32:52;95012.09;;;-1.64;96.91
21588;BME280;10956;48.878;13.316;2023-01-29T08:35:18;95010.25;;;-1.78;97.13
21588;BME280;10956;48.878;13.316;2023-01-29T08:37:43;95014.72;;;-1.72;97.16
21588;BME280;10956;48.878;13.316;2023-01-29T08:40:09;95013.13;;;-1.73;97.40
21588;BME280;10956;48.878;13.316;2023-01-29T08:42:37;95021.16;;;-1.68;96.76
21588;BME280;10956;48.878;13.316;2023-01-29T08:45:03;95017.56;;;-1.58;96.61
21588;BME280;10956;48.878;13.316;2023-01-29T08:47:28;95018.19;;;-1.56;96.51
21588;BME280;10956;48.878;13.316;2023-01-29T08:49:54;95025.56;;;-1.45;96.15
21588;BME280;10956;48.878;13.316;2023-01-29T08:52:19;95027.84;;;-1.50;94.96
21588;BME280;10956;48.878;13.316;2023-01-29T08:54:45;95035.56;;;-1.42;95.38
21588;BME280;10956;48.878;13.316;2023-01-29T08:57:10;95039.41;;;-1.38;95.21
21588;BME280;10956;48.878;13.316;2023-01-29T08:59:35;95047.16;;;-1.38;95.01
21588;BME280;10956;48.878;13.316;2023-01-29T09:02:01;95052.00;;;-1.35;94.80
21588;BME280;10956;48.878;13.316;2023-01-29T09:04:26;95055.84;;;-1.31;94.63
21588;BME280;10956;48.878;13.316;2023-01-29T09:06:51;95056.47;;;-1.29;94.00
21588;BME280;10956;48.878;13.316;2023-01-29T09:09:17;95053.25;;;-1.31;93.85
21588;BME280;10956;48.878;13.316;2023-01-29T09:11:42;95051.66;;;-1.32;93.76
21588;BME280;10956;48.878;13.316;2023-01-29T09:14:08;95052.34;;;-1.38;93.44
21588;BME280;10956;48.878;13.316;2023-01-29T09:16:36;95062.09;;;-1.48;93.87
21588;BME280;10956;48.878;13.316;2023-01-29T09:19:01;95056.91;;;-1.48;93.95
21588;BME280;10956;48.878;13.316;2023-01-29T09:21:27;95057.00;;;-1.34;93.92
21588;BME280;10956;48.878;13.316;2023-01-29T09:23:52;95065.69;;;-1.26;93.32
21588;BME280;10956;48.878;13.316;2023-01-29T09:26:18;95059.47;;;-1.17;92.64
21588;BME280;10956;48.878;13.316;2023-01-29T09:28:43;95051.88;;;-1.19;92.24
21588;BME280;10956;48.878;13.316;2023-01-29T09:31:08;95053.16;;;-1.15;91.83
21588;BME280;10956;48.878;13.316;2023-01-29T09:33:34;95062.47;;;-1.06;91.28
21588;BME280;10956;48.878;13.316;2023-01-29T09:36:01;95056.31;;;-1.05;91.41
21588;BME280;10956;48.878;13.316;2023-01-29T09:38:27;95040.03;;;-0.90;90.82
21588;BME280;10956;48.878;13.316;2023-01-29T09:41:13;95044.50;;;-0.84;90.11
21588;BME280;10956;48.878;13.316;2023-01-29T09:43:52;95049.75;;;-0.92;89.64
21588;BME280;10956;48.878;13.316;2023-01-29T09:46:33;95039.31;;;-0.84;89.40
21588;BME280;10956;48.878;13.316;2023-01-29T09:49:19;95046.66;;;-0.73;88.72
21588;BME280;10956;48.878;13.316;2023-01-29T09:52:06;95049.25;;;-0.73;89.20
21588;BME280;10956;48.878;13.316;2023-01-29T09:55:02;95049.69;;;-0.84;89.00
21588;BME280;10956;48.878;13.316;2023-01-29T10:00:23;95053.75;;;-0.52;87.87
21588;BME280;10956;48.878;13.316;2023-01-29T10:14:29;95032.44;;;0.05;84.58
21588;BME280;10956;48.878;13.316;2023-01-29T10:19:55;95018.41;;;-0.01;83.57
21588;BME280;10956;48.878;13.316;2023-01-29T10:22:52;95018.66;;;0.04;83.53
21588;BME280;10956;48.878;13.316;2023-01-29T10:25:20;95013.84;;;0.01;83.06
21588;BME280;10956;48.878;13.316;2023-01-29T10:27:52;95011.16;;;0.09;82.38
21588;BME280;10956;48.878;13.316;2023-01-29T10:30:37;95014.38;;;0.11;82.86
21588;BME280;10956;48.878;13.316;2023-01-29T10:33:08;95014.22;;;-0.02;83.29
21588;BME280;10956;48.878;13.316;2023-01-29T10:35:40;95015.47;;;0.02;83.96
21588;BME280;10956;48.878;13.316;2023-01-29T10:40:47;95010.69;;;0.20;83.62
21588;BME280;10956;48.878;13.316;2023-01-29T10:43:34;95013.28;;;0.20;83.66
21588;BME280;10956;48.878;13.316;2023-01-29T10:48:44;95012.56;;;0.26;83.55
21588;BME280;10956;48.878;13.316;2023-01-29T10:53:55;95023.94;;;0.11;83.80
21588;BME280;10956;48.878;13.316;2023-01-29T10:56:47;95013.78;;;-0.06;83.85
21588;BME280;10956;48.878;13.316;2023-01-29T11:02:14;95006.69;;;0.03;83.32
21588;BME280;10956;48.878;13.316;2023-01-29T11:04:42;94997.38;;;0.23;83.33
21588;BME280;10956;48.878;13.316;2023-01-29T11:07:07;94989.25;;;0.48;83.00
21588;BME280;10956;48.878;13.316;2023-01-29T11:09:43;94988.63;;;0.46;82.15
21588;BME280;10956;48.878;13.316;2023-01-29T11:12:19;94969.81;;;0.58;82.21
21588;BME280;10956;48.878;13.316;2023-01-29T11:17:22;94956.41;;;0.55;82.50
21588;BME280;10956;48.878;13.316;2023-01-29T11:19:49;94955.84;;;0.59;82.35
21588;BME280;10956;48.878;13.316;2023-01-29T11:25:16;94941.47;;;0.57;82.66
21588;BME280;10956;48.878;13.316;2023-01-29T11:27:48;94937.63;;;0.74;82.41
21588;BME280;10956;48.878;13.316;2023-01-29T11:32:42;94930.81;;;0.94;81.47
21588;BME280;10956;48.878;13.316;2023-01-29T11:37:37;94927.88;;;0.76;80.97
21588;BME280;10956;48.878;13.316;2023-01-29T11:42:44;94917.13;;;0.79;81.06
21588;BME280;10956;48.878;13.316;2023-01-29T11:47:48;94914.16;;;0.82;80.92
21588;BME280;10956;48.878;13.316;2023-01-29T11:50:23;94911.31;;;0.77;81.19
21588;BME280;10956;48.878;13.316;2023-01-29T11:52:50;94919.94;;;0.84;80.95
21588;BME280;10956;48.878;13.316;2023-01-29T11:57:45;94913.03;;;0.91;80.73
21588;BME280;10956;48.878;13.316;2023-01-29T12:00:25;94914.28;;;1.02;80.78
21588;BME280;10956;48.878;13.316;2023-01-29T12:03:10;94913.25;;;0.96;80.53
21588;BME280;10956;48.878;13.316;2023-01-29T12:05:38;94910.72;;;1.03;80.31
21588;BME280;10956;48.878;13.316;2023-01-29T12:08:14;94915.03;;;0.96;80.19
21588;BME280;10956;48.878;13.316;2023-01-29T12:10:42;94906.69;;;1.01;80.11
21588;BME280;10956;48.878;13.316;2023-01-29T12:15:46;94912.41;;;1.17;79.66
21588;BME280;10956;48.878;13.316;2023-01-29T12:20:47;94892.34;;;1.05;79.11
21588;BME280;10956;48.878;13.316;2023-01-29T12:24:05;94884.72;;;0.96;79.58
21588;BME280;10956;48.878;13.316;2023-01-29T12:26:17;94875.09;;;0.90;79.96
21588;BME280;10956;48.878;13.316;2023-01-29T12:32:02;94859.59;;;1.04;79.50
21588;BME280;10956;48.878;13.316;2023-01-29T12:34:51;94859.22;;;1.07;79.23
21588;BME280;10956;48.878;13.316;2023-01-29T12:37:55;94851.19;;;1.02;79.42
21588;BME280;10956;48.878;13.316;2023-01-29T12:40:27;94846.69;;;0.82;79.68
21588;BME280;10956;48.878;13.316;2023-01-29T12:42:59;94848.28;;;0.83;80.61
21588;BME280;10956;48.878;13.316;2023-01-29T12:45:28;94849.13;;;0.90;80.57
21588;BME280;10956;48.878;13.316;2023-01-29T12:48:07;94845.97;;;0.95;80.20
21588;BME280;10956;48.878;13.316;2023-01-29T12:50:36;94842.38;;;0.96;80.28
21588;BME280;10956;48.878;13.316;2023-01-29T12:55:38;94835.94;;;0.85;80.44
21588;BME280;10956;48.878;13.316;2023-01-29T12:58:15;94838.16;;;0.88;80.99
21588;BME280;10956;48.878;13.316;2023-01-29T13:00:46;94835.94;;;0.85;81.00
21588;BME280;10956;48.878;13.316;2023-01-29T13:03:18;94840.31;;;0.85;80.92
21588;BME280;10956;48.878;13.316;2023-01-29T13:06:08;94831.00;;;0.97;81.04
21588;BME280;10956;48.878;13.316;2023-01-29T13:08:38;94828.69;;;1.09;80.66
21588;BME280;10956;48.878;13.316;2023-01-29T13:11:10;94830.50;;;1.15;80.56
21588;BME280;10956;48.878;13.316;2023-01-29T13:13:48;94835.09;;;1.13;81.19
21588;BME280;10956;48.878;13.316;2023-01-29T13:16:19;94829.91;;;1.13;81.25
21588;BME280;10956;48.878;13.316;2023-01-29T13:19:01;94831.28;;;1.09;81.45
21588;BME280;10956;48.878;13.316;2023-01-29T13:21:35;94829.06;;;1.06;82.08
21588;BME280;10956;48.878;13.316;2023-01-29T13:24:04;94832.03;;;1.03;82.25
21588;BME280;10956;48.878;13.316;2023-01-29T13:26:35;94828.00;;;0.93;82.74
21588;BME280;10956;48.878;13.316;2023-01-29T13:29:02;94827.09;;;0.80;83.51
21588;BME280;10956;48.878;13.316;2023-01-29T13:31:34;94825.59;;;0.64;84.35
21588;BME280;10956;48.878;13.316;2023-01-29T13:34:25;94832.63;;;0.70;84.47
21588;BME280;10956;48.878;13.316;2023-01-29T13:37:17;94831.88;;;0.76;84.31
21588;BME280;10956;48.878;13.316;2023-01-29T13:39:52;94837.06;;;0.76;84.50
21588;BME280;10956;48.878;13.316;2023-01-29T13:42:21;94832.50;;;0.78;84.60
21588;BME280;10956;48.878;13.316;2023-01-29T13:44:53;94826.31;;;0.79;84.93
21588;BME280;10956;48.878;13.316;2023-01-29T13:47:26;94832.69;;;0.77;84.84
21588;BME280;10956;48.878;13.316;2023-01-29T13:52:59;94827.09;;;0.80;85.14
21588;BME280;10956;48.878;13.316;2023-01-29T13:55:34;94828.16;;;0.85;84.82
21588;BME280;10956;48.878;13.316;2023-01-29T13:58:04;94825.16;;;0.88;85.15
21588;BME280;10956;48.878;13.316;2023-01-29T14:10:25;94805.84;;;0.63;86.30
21588;BME280;10956;48.878;13.316;2023-01-29T14:12:53;94805.00;;;0.56;86.32
21588;BME280;10956;48.878;13.316;2023-01-29T14:15:21;94810.31;;;0.48;86.60
21588;BME280;10956;48.878;13.316;2023-01-29T14:18:18;94812.06;;;0.41;86.78
21588;BME280;10956;48.878;13.316;2023-01-29T14:23:35;94815.03;;;0.38;87.21
21588;BME280;10956;48.878;13.316;2023-01-29T14:26:17;94808.25;;;0.37;87.60
21588;BME280;10956;48.878;13.316;2023-01-29T14:28:51;94810.09;;;0.43;87.32
21588;BME280;10956;48.878;13.316;2023-01-29T14:31:59;94803.91;;;0.44;87.29
21588;BME280;10956;48.878;13.316;2023-01-29T14:34:59;94807.25;;;0.38;87.14
21588;BME280;10956;48.878;13.316;2023-01-29T14:37:38;94800.47;;;0.37;87.66
21588;BME280;10956;48.878;13.316;2023-01-29T14:42:49;94802.72;;;0.18;88.32
21588;BME280;10956;48.878;13.316;2023-01-29T14:53:20;94800.13;;;0.18;88.66
21588;BME280;10956;48.878;13.316;2023-01-29T14:55:57;94791.97;;;0.21;88.66
21588;BME280;10956;48.878;13.316;2023-01-29T14:58:51;94789.50;;;0.13;88.61
21588;BME280;10956;48.878;13.316;2023-01-29T15:01:20;94786.69;;;0.08;88.97
21588;BME280;10956;48.878;13.316;2023-01-29T15:06:41;94791.75;;;-0.05;89.53
21588;BME280;10956;48.878;13.316;2023-01-29T15:09:12;94784.22;;;0.00;89.64
21588;BME280;10956;48.878;13.316;2023-01-29T15:11:48;94796.94;;;-0.05;89.86
21588;BME280;10956;48.878;13.316;2023-01-29T15:14:25;94798.28;;;-0.09;89.94
21588;BME280;10956;48.878;13.316;2023-01-29T15:17:27;94805.19;;;-0.16;90.24
21588;BME280;10956;48.878;13.316;2023-01-29T15:19:54;94804.31;;;-0.23;90.50
21588;BME280;10956;48.878;13.316;2023-01-29T15:22:21;94811.84;;;-0.28;90.80
21588;BME280;10956;48.878;13.316;2023-01-29T15:25:08;94801.50;;;-0.28;90.91
21588;BME280;10956;48.878;13.316;2023-01-29T15:27:40;94794.28;;;-0.33;91.33
21588;BME280;10956;48.878;13.316;2023-01-29T15:30:06;94792.97;;;-0.44;91.61